Time;durP1;ratioP1;P1;durP2;ratioP2;P2;SDS_P1;SDS_P2;PMS_P1;PMS_P2;Temp;Humidity;BMP_temperature;BMP_pressure;BME280_temperature;BME280_humidity;BME280_pressure;Samples;Min_cycle;Max_cycle;Signal;HPM_P1;HPM_P2
2022/08/04 00:00:09;;;;;;;4.57;4.07;;;25.40;90.70;;;;;;4963460;28;20442;-94
2022/08/04 00:02:47;;;;;;;8.33;5.20;;;25.30;90.50;;;;;;4963692;28;20792;-92
2022/08/04 00:05:28;;;;;;;5.40;5.00;;;25.30;90.80;;;;;;4962994;28;20473;-92
2022/08/04 00:08:19;;;;;;;6.50;4.90;;;25.30;90.80;;;;;;4981772;28;20424;-92
2022/08/04 00:10:50;;;;;;;6.97;5.03;;;25.20;90.70;;;;;;4927868;28;20470;-94
2022/08/04 00:13:21;;;;;;;5.87;4.47;;;25.20;90.60;;;;;;4981292;28;20432;-94
2022/08/04 00:15:54;;;;;;;6.33;4.87;;;25.20;90.70;;;;;;4963457;28;20834;-91
2022/08/04 00:18:25;;;;;;;17.30;5.33;;;25.20;90.80;;;;;;4982874;28;20418;-92
2022/08/04 00:20:59;;;;;;;10.10;4.93;;;25.20;91.00;;;;;;4978916;28;20480;-92
2022/08/04 00:23:26;;;;;;;5.40;4.20;;;25.10;90.90;;;;;;4961893;28;20416;-94
2022/08/04 00:25:52;;;;;;;6.67;5.17;;;25.10;91.00;;;;;;4964549;28;20536;-95
2022/08/04 00:28:20;;;;;;;5.63;4.67;;;25.00;91.10;;;;;;4962014;28;20417;-92
2022/08/04 00:30:46;;;;;;;5.50;4.30;;;25.00;91.10;;;;;;4961552;28;20445;-94
2022/08/04 00:33:17;;;;;;;7.63;5.10;;;25.00;91.20;;;;;;4961921;28;20509;-92
2022/08/04 00:35:44;;;;;;;6.20;4.40;;;24.90;91.20;;;;;;4962044;28;20465;-94
2022/08/04 00:38:11;;;;;;;6.37;4.93;;;24.90;91.30;;;;;;4962345;28;20432;-91
2022/08/04 00:40:49;;;;;;;5.50;4.40;;;24.90;91.30;;;;;;4962337;28;20444;-94
2022/08/04 00:43:20;;;;;;;7.43;5.57;;;24.80;91.30;;;;;;4979435;28;20417;-94
2022/08/04 00:46:12;;;;;;;8.20;4.80;;;24.70;91.30;;;;;;4970007;28;20847;-92
2022/08/04 00:48:51;;;;;;;5.40;4.30;;;24.70;91.40;;;;;;4977532;28;20418;-94
2022/08/04 00:51:41;;;;;;;7.00;4.93;;;24.60;91.60;;;;;;4979896;28;20446;-91
2022/08/04 00:54:31;;;;;;;5.97;4.43;;;24.60;91.70;;;;;;4979211;28;20409;-93
2022/08/04 00:57:23;;;;;;;5.97;4.80;;;24.50;91.80;;;;;;4978308;28;20434;-92
2022/08/04 01:00:09;;;;;;;6.93;4.33;;;24.50;91.80;;;;;;4978937;28;20484;-92
2022/08/04 01:02:57;;;;;;;6.73;5.00;;;24.40;91.80;;;;;;4978379;28;20445;-91
2022/08/04 01:05:41;;;;;;;6.53;5.83;;;24.40;91.90;;;;;;4978019;28;21026;-92
2022/08/04 01:08:38;;;;;;;6.30;4.73;;;24.40;92.00;;;;;;4978322;28;20958;-92
2022/08/04 01:11:28;;;;;;;9.17;5.77;;;24.30;92.00;;;;;;4978382;28;21246;-95
2022/08/04 01:14:16;;;;;;;5.67;4.60;;;24.30;92.10;;;;;;4978670;28;20515;-92
2022/08/04 01:16:52;;;;;;;5.67;4.77;;;24.30;92.20;;;;;;4980749;28;20513;-94
2022/08/04 01:19:53;;;;;;;4.33;3.93;;;24.30;92.30;;;;;;4990480;28;20448;-92
2022/08/04 01:22:53;;;;;;;6.37;4.67;;;24.20;92.30;;;;;;4988929;28;20506;-94
2022/08/04 01:25:40;;;;;;;6.00;4.70;;;24.20;92.30;;;;;;4981358;28;20476;-92
2022/08/04 01:28:35;;;;;;;5.23;4.50;;;24.20;92.30;;;;;;4980382;28;21135;-92
2022/08/04 01:31:17;;;;;;;10.03;5.50;;;24.20;92.20;;;;;;4979090;28;20517;-94
2022/08/04 01:33:47;;;;;;;7.87;5.70;;;24.20;92.10;;;;;;4977542;28;20424;-95
2022/08/04 01:36:13;;;;;;;7.00;5.10;;;24.20;92.10;;;;;;4978141;28;20948;-95
2022/08/04 01:38:41;;;;;;;4.53;4.13;;;24.10;92.10;;;;;;4977521;28;20446;-94
2022/08/04 01:41:08;;;;;;;5.40;4.90;;;24.10;92.10;;;;;;4977290;28;20800;-92
2022/08/04 01:43:41;;;;;;;7.20;4.63;;;24.10;92.30;;;;;;4977429;28;20426;-95
2022/08/04 01:46:10;;;;;;;8.70;5.90;;;24.10;92.30;;;;;;4984944;28;20476;-94
2022/08/04 01:48:38;;;;;;;5.23;4.77;;;24.00;92.40;;;;;;4960565;28;20414;-95
2022/08/04 01:51:08;;;;;;;9.23;5.47;;;24.00;92.50;;;;;;4960873;28;20442;-94
2022/08/04 01:53:39;;;;;;;6.90;4.90;;;24.00;92.50;;;;;;4960519;28;20436;-92
2022/08/04 01:56:08;;;;;;;5.77;4.80;;;24.00;92.60;;;;;;4960278;28;20464;-94
2022/08/04 01:58:35;;;;;;;6.33;4.07;;;24.00;92.70;;;;;;4960356;28;20438;-92
2022/08/04 02:01:04;;;;;;;6.60;5.20;;;23.90;92.70;;;;;;4961593;28;20478;-91
2022/08/04 02:03:31;;;;;;;7.17;4.90;;;23.90;92.60;;;;;;4960731;28;20487;-94
2022/08/04 02:06:13;;;;;;;5.67;5.10;;;23.90;92.40;;;;;;4960171;28;20482;-92
2022/08/04 02:08:56;;;;;;;6.87;4.63;;;23.90;92.30;;;;;;4960458;28;20408;-94
2022/08/04 02:11:22;;;;;;;6.37;4.70;;;23.90;92.30;;;;;;4977694;28;20893;-94
2022/08/04 02:14:39;;;;;;;7.13;4.20;;;23.80;92.30;;;;;;4977923;28;20419;-91
2022/08/04 02:17:28;;;;;;;5.40;4.83;;;23.80;92.30;;;;;;4960748;28;20483;-94
2022/08/04 02:20:06;;;;;;;6.60;5.10;;;23.80;92.60;;;;;;4979353;28;20426;-95
2022/08/04 02:22:44;;;;;;;6.00;4.63;;;23.80;92.40;;;;;;4962301;28;20438;-94
2022/08/04 02:25:10;;;;;;;7.00;5.10;;;23.70;92.50;;;;;;4976448;28;20489;-92
2022/08/04 02:27:54;;;;;;;6.33;4.70;;;23.70;92.50;;;;;;4972682;28;20935;-92
2022/08/04 02:30:20;;;;;;;15.07;5.73;;;23.70;92.50;;;;;;4970876;28;20439;-92
2022/08/04 02:32:51;;;;;;;9.27;5.40;;;23.70;92.50;;;;;;4960122;28;20473;-91
2022/08/04 02:35:26;;;;;;;6.23;5.00;;;23.70;92.60;;;;;;4959850;28;20445;-92
2022/08/04 02:38:10;;;;;;;8.73;5.03;;;23.60;92.60;;;;;;4978001;28;20480;-95
2022/08/04 02:40:36;;;;;;;5.40;4.73;;;23.60;92.60;;;;;;4979274;28;20432;-94
2022/08/04 02:43:04;;;;;;;6.23;5.37;;;23.60;92.70;;;;;;4977973;28;20423;-95
2022/08/04 02:45:34;;;;;;;8.77;5.93;;;23.60;92.70;;;;;;4961952;28;20533;-92
2022/08/04 02:48:02;;;;;;;6.80;5.20;;;23.50;92.70;;;;;;4976589;28;20442;-94
2022/08/04 02:50:29;;;;;;;6.03;5.07;;;23.50;92.80;;;;;;4978248;28;20439;-92
2022/08/04 02:52:59;;;;;;;6.10;5.50;;;23.50;92.80;;;;;;4976315;28;20422;-93
2022/08/04 02:55:27;;;;;;;5.30;4.60;;;23.40;92.80;;;;;;4976908;28;20797;-91
2022/08/04 02:57:55;;;;;;;6.23;5.40;;;23.40;92.90;;;;;;4975844;28;20961;-95
2022/08/04 03:00:21;;;;;;;5.93;5.33;;;23.40;93.00;;;;;;4975624;28;20465;-91
2022/08/04 03:03:11;;;;;;;11.33;5.70;;;23.30;93.00;;;;;;4975672;28;20473;-91
2022/08/04 03:06:12;;;;;;;14.43;5.93;;;23.30;93.20;;;;;;4976712;28;20474;-93
2022/08/04 03:09:09;;;;;;;8.60;5.13;;;23.30;93.20;;;;;;4943197;28;20439;-92
2022/08/04 03:12:05;;;;;;;6.63;5.30;;;23.20;93.20;;;;;;4975168;28;20450;-92
2022/08/04 03:15:08;;;;;;;6.77;5.47;;;23.20;93.20;;;;;;4975419;28;20464;-94
2022/08/04 03:17:55;;;;;;;8.20;4.93;;;23.20;93.30;;;;;;4976515;28;20465;-94
2022/08/04 03:20:48;;;;;;;6.00;5.40;;;23.10;93.30;;;;;;4977724;28;20575;-92
2022/08/04 03:23:29;;;;;;;12.10;6.03;;;23.10;93.30;;;;;;4977207;28;20422;-92
2022/08/04 03:26:14;;;;;;;9.77;5.83;;;23.10;93.40;;;;;;4975995;28;20515;-95
2022/08/04 03:28:50;;;;;;;6.23;5.10;;;23.10;93.40;;;;;;4984533;28;20447;-95
2022/08/04 03:31:38;;;;;;;6.27;5.43;;;23.00;93.40;;;;;;4980136;28;20471;-94
2022/08/04 03:34:41;;;;;;;6.97;5.50;;;23.00;93.50;;;;;;4975106;28;20470;-92
2022/08/04 03:37:17;;;;;;;7.90;5.70;;;23.00;93.50;;;;;;4974969;28;20524;-95
2022/08/04 03:40:24;;;;;;;6.50;5.77;;;23.00;93.50;;;;;;4974688;28;20434;-92
2022/08/04 03:43:22;;;;;;;6.60;6.00;;;23.00;93.60;;;;;;4977170;28;20497;-91
2022/08/04 03:46:23;;;;;;;7.03;5.77;;;22.90;93.60;;;;;;4974940;28;20490;-95
2022/08/04 03:49:16;;;;;;;10.20;5.30;;;22.90;93.70;;;;;;4975488;28;20430;-91
2022/08/04 03:55:16;;;;;;;8.47;6.13;;;22.80;93.80;;;;;;4976559;28;20433;-94
2022/08/04 03:58:03;;;;;;;9.00;6.30;;;22.80;93.80;;;;;;4977828;28;20843;-92
2022/08/04 04:01:05;;;;;;;18.67;12.10;;;22.80;93.90;;;;;;4983680;28;20978;-91
2022/08/04 04:04:08;;;;;;;13.77;9.57;;;22.70;94.00;;;;;;4974750;28;20763;-94
2022/08/04 04:07:06;;;;;;;13.40;6.10;;;22.70;94.00;;;;;;4975762;28;20645;-92
2022/08/04 04:10:02;;;;;;;7.33;6.37;;;22.70;94.00;;;;;;4975510;28;20476;-94
2022/08/04 04:13:06;;;;;;;7.87;6.03;;;22.70;94.10;;;;;;4975324;28;20449;-94
2022/08/04 04:15:57;;;;;;;9.97;6.87;;;22.70;94.20;;;;;;4976580;28;20434;-93
2022/08/04 04:18:38;;;;;;;9.00;5.43;;;22.60;94.20;;;;;;4976570;28;20426;-91
2022/08/04 04:21:44;;;;;;;8.80;5.90;;;22.60;94.20;;;;;;4978339;28;21618;-91
2022/08/04 04:24:15;;;;;;;6.30;5.60;;;22.60;94.30;;;;;;4980053;28;20493;-94
2022/08/04 04:26:50;;;;;;;6.50;5.53;;;22.60;94.30;;;;;;4981895;28;20931;-91
2022/08/04 04:29:37;;;;;;;8.17;6.23;;;22.60;94.40;;;;;;4995051;28;20590;-92
2022/08/04 04:32:20;;;;;;;6.53;5.50;;;22.60;94.50;;;;;;4984430;28;20426;-94
2022/08/04 04:34:49;;;;;;;7.60;6.13;;;22.60;94.50;;;;;;4978554;28;20450;-90
2022/08/04 04:37:53;;;;;;;8.63;5.60;;;22.70;94.60;;;;;;4977356;28;20453;-90
2022/08/04 04:40:21;;;;;;;9.60;6.30;;;22.70;94.60;;;;;;4972285;28;20806;-90
2022/08/04 04:43:05;;;;;;;7.00;5.67;;;22.70;94.60;;;;;;4963950;28;20438;-95
2022/08/04 04:45:52;;;;;;;8.37;6.20;;;22.70;94.60;;;;;;4957160;28;20482;-90
2022/08/04 04:48:37;;;;;;;8.30;6.60;;;22.80;94.50;;;;;;4958345;29;20823;-90
2022/08/04 04:51:15;;;;;;;9.63;6.50;;;22.80;94.90;;;;;;4960124;29;20450;-91
2022/08/04 04:53:56;;;;;;;8.20;6.00;;;22.90;94.70;;;;;;4959044;29;20443;-95
2022/08/04 04:56:27;;;;;;;7.03;5.30;;;22.90;94.70;;;;;;4961785;29;20435;-95
2022/08/04 04:58:55;;;;;;;9.10;6.07;;;23.00;94.70;;;;;;4962120;29;20455;-90
2022/08/04 05:01:39;;;;;;;9.83;5.63;;;23.00;94.60;;;;;;4973113;28;20485;-95
2022/08/04 05:04:28;;;;;;;7.60;5.60;;;23.10;94.60;;;;;;4995618;28;20406;-90
2022/08/04 05:07:15;;;;;;;10.10;5.90;;;23.20;94.40;;;;;;4995610;28;20434;-92
2022/08/04 05:10:07;;;;;;;7.90;6.07;;;23.20;94.50;;;;;;4996097;28;20473;-95
2022/08/04 05:12:50;;;;;;;6.03;5.43;;;23.30;94.40;;;;;;4997262;28;20425;-90
2022/08/04 05:15:19;;;;;;;7.17;6.43;;;23.40;94.50;;;;;;4997530;28;20806;-92
2022/08/04 05:17:56;;;;;;;5.93;5.43;;;23.40;94.50;;;;;;4969828;28;20542;-94
2022/08/04 05:20:27;;;;;;;6.23;5.23;;;23.50;94.50;;;;;;4965565;28;20796;-96
2022/08/04 05:23:01;;;;;;;9.50;6.30;;;23.50;94.70;;;;;;4975736;28;20431;-92
2022/08/04 05:25:50;;;;;;;10.20;6.87;;;23.60;94.70;;;;;;4990057;28;20568;-92
2022/08/04 05:28:32;;;;;;;7.23;5.40;;;23.60;94.60;;;;;;4959204;28;20507;-95
2022/08/04 05:31:04;;;;;;;8.53;7.47;;;23.60;94.70;;;;;;4979089;28;20445;-91
2022/08/04 05:33:46;;;;;;;307.93;149.50;;;23.70;94.80;;;;;;4987588;28;20425;-91
2022/08/04 05:36:17;;;;;;;63.27;35.87;;;23.80;94.70;;;;;;4981276;28;20522;-91
2022/08/04 05:38:48;;;;;;;20.97;14.33;;;23.90;94.60;;;;;;4976204;28;20399;-91
2022/08/04 05:41:14;;;;;;;10.17;8.03;;;24.00;94.50;;;;;;4974511;28;20458;-91
2022/08/04 05:43:43;;;;;;;6.57;5.50;;;24.00;94.50;;;;;;4977829;28;20841;-92
2022/08/04 05:46:11;;;;;;;5.43;4.93;;;24.10;94.50;;;;;;4974206;28;20940;-95
2022/08/04 05:48:37;;;;;;;5.10;4.70;;;24.20;94.60;;;;;;4966054;28;20475;-95
2022/08/04 05:51:04;;;;;;;5.27;4.53;;;24.20;94.60;;;;;;4971929;28;20558;-96
2022/08/04 05:53:31;;;;;;;6.20;5.00;;;24.30;94.50;;;;;;4978040;28;20416;-95
2022/08/04 05:55:58;;;;;;;5.63;4.60;;;24.40;94.50;;;;;;4976380;28;20466;-96
2022/08/04 05:58:24;;;;;;;7.40;5.43;;;24.50;94.40;;;;;;4982436;28;20423;-91
2022/08/04 06:00:51;;;;;;;5.90;4.40;;;24.50;94.30;;;;;;4971499;28;20468;-92
2022/08/04 06:03:20;;;;;;;6.77;4.80;;;24.60;94.30;;;;;;4969538;28;20461;-96
2022/08/04 06:05:47;;;;;;;6.03;5.10;;;24.70;94.20;;;;;;4973038;28;20492;-96
2022/08/04 06:08:12;;;;;;;6.63;4.70;;;24.80;94.20;;;;;;4965974;28;20483;-91
2022/08/04 06:10:40;;;;;;;5.30;4.60;;;24.80;94.10;;;;;;4976767;28;20468;-95
2022/08/04 06:13:10;;;;;;;5.40;4.90;;;24.90;94.00;;;;;;4977022;28;20202;-91
2022/08/04 06:15:39;;;;;;;5.27;4.77;;;25.00;94.00;;;;;;4976079;28;20443;-92
2022/08/04 06:18:08;;;;;;;5.00;4.50;;;25.00;94.00;;;;;;4976773;28;20438;-90
2022/08/04 06:20:41;;;;;;;7.83;4.80;;;25.10;94.00;;;;;;4983011;28;20522;-91
2022/08/04 06:23:10;;;;;;;5.10;4.60;;;25.20;94.20;;;;;;4970738;28;20433;-96
2022/08/04 06:25:48;;;;;;;6.07;5.43;;;25.30;94.20;;;;;;4970155;28;20486;-91
2022/08/04 06:28:14;;;;;;;6.07;4.87;;;25.40;94.00;;;;;;4969626;28;20454;-95
2022/08/04 06:30:41;;;;;;;8.50;4.87;;;25.50;93.80;;;;;;4964158;28;20462;-95
2022/08/04 06:33:26;;;;;;;5.60;4.93;;;25.50;93.90;;;;;;4958674;28;20528;-96
2022/08/04 06:35:54;;;;;;;5.67;5.17;;;25.60;93.60;;;;;;4967955;28;20434;-91
2022/08/04 06:38:26;;;;;;;5.30;4.80;;;25.70;93.50;;;;;;4969108;28;20435;-92
2022/08/04 06:40:54;;;;;;;4.60;4.20;;;25.80;93.40;;;;;;4965576;28;20453;-91
2022/08/04 06:43:21;;;;;;;5.73;4.47;;;25.90;93.20;;;;;;4968741;28;20463;-92
2022/08/04 06:45:48;;;;;;;7.77;4.47;;;26.00;93.20;;;;;;4963149;28;20555;-92
2022/08/04 06:48:16;;;;;;;6.50;4.67;;;26.00;93.00;;;;;;4977750;28;20536;-96
2022/08/04 06:50:46;;;;;;;7.20;4.53;;;26.10;92.90;;;;;;4979537;28;20444;-96
2022/08/04 06:53:13;;;;;;;7.33;4.80;;;26.20;92.90;;;;;;4973900;28;20473;-96
2022/08/04 06:55:42;;;;;;;5.00;4.60;;;26.30;93.00;;;;;;4980143;28;20439;-96
2022/08/04 06:58:15;;;;;;;5.57;4.70;;;26.40;92.80;;;;;;4971236;28;20463;-95
2022/08/04 07:00:43;;;;;;;5.37;4.87;;;26.40;92.80;;;;;;4984361;28;20528;-92
2022/08/04 07:03:10;;;;;;;7.40;4.90;;;26.50;92.70;;;;;;4980936;28;20437;-91
2022/08/04 07:05:36;;;;;;;5.03;4.50;;;26.60;92.60;;;;;;4984186;28;20852;-95
2022/08/04 07:08:03;;;;;;;4.83;4.43;;;26.70;92.40;;;;;;4987248;28;20484;-90
2022/08/04 07:10:30;;;;;;;4.30;3.90;;;26.80;92.30;;;;;;4970876;28;20545;-95
2022/08/04 07:12:57;;;;;;;5.30;4.83;;;26.90;92.10;;;;;;4966542;28;20438;-91
2022/08/04 07:15:24;;;;;;;5.07;4.60;;;26.90;91.90;;;;;;4966221;28;20445;-94
2022/08/04 07:17:51;;;;;;;5.80;4.27;;;27.00;91.60;;;;;;4974375;28;20410;-91
2022/08/04 07:20:18;;;;;;;4.77;4.37;;;27.10;91.50;;;;;;4974153;28;21041;-92
2022/08/04 07:22:45;;;;;;;4.57;4.20;;;27.20;91.50;;;;;;4975599;28;20444;-90
2022/08/04 07:25:12;;;;;;;4.50;4.10;;;27.30;91.40;;;;;;4977998;28;20519;-96
2022/08/04 07:27:38;;;;;;;5.20;4.30;;;27.30;91.40;;;;;;4995511;28;20423;-90
2022/08/04 07:30:09;;;;;;;6.30;5.40;;;27.40;91.70;;;;;;4984881;28;20470;-95
2022/08/04 07:32:36;;;;;;;4.10;3.77;;;27.50;91.10;;;;;;4977549;28;20428;-91
2022/08/04 07:35:06;;;;;;;4.43;4.03;;;27.50;91.20;;;;;;4973608;28;20466;-92
2022/08/04 07:37:32;;;;;;;8.73;4.60;;;27.60;91.20;;;;;;4967221;28;20431;-91
2022/08/04 07:39:58;;;;;;;4.73;4.33;;;27.70;91.20;;;;;;4958788;28;20458;-91
2022/08/04 07:42:23;;;;;;;7.33;4.70;;;27.80;91.10;;;;;;4974969;28;20410;-91
2022/08/04 07:44:49;;;;;;;4.20;3.80;;;27.80;91.00;;;;;;4970007;28;20255;-95
2022/08/04 07:47:15;;;;;;;5.20;4.70;;;27.90;91.00;;;;;;4974206;28;20514;-91
2022/08/04 07:49:41;;;;;;;4.53;4.13;;;27.90;90.90;;;;;;4968641;28;20235;-96
2022/08/04 07:52:07;;;;;;;6.83;4.37;;;28.00;90.80;;;;;;4962310;28;20212;-90
2022/08/04 07:54:34;;;;;;;4.60;4.20;;;28.10;90.80;;;;;;4982079;28;20794;-95
2022/08/04 07:57:00;;;;;;;4.40;4.00;;;28.20;90.20;;;;;;4957166;28;20430;-95
2022/08/04 07:59:25;;;;;;;4.33;4.03;;;28.20;89.50;;;;;;4970197;28;20547;-96
2022/08/04 08:01:52;;;;;;;4.67;4.27;;;28.30;90.10;;;;;;4980645;28;20177;-90
2022/08/04 08:04:18;;;;;;;4.53;4.10;;;28.40;90.00;;;;;;4978813;28;20250;-96
2022/08/04 08:06:44;;;;;;;4.73;4.30;;;28.50;90.00;;;;;;4981676;28;20838;-93
2022/08/04 08:09:13;;;;;;;5.03;4.30;;;28.60;89.50;;;;;;4977430;28;20507;-95
2022/08/04 08:11:43;;;;;;;5.03;4.10;;;28.70;89.20;;;;;;4982996;28;20175;-90
2022/08/04 08:14:09;;;;;;;4.87;4.47;;;28.70;89.70;;;;;;4963174;28;20444;-95
2022/08/04 08:16:35;;;;;;;4.10;3.80;;;28.80;89.80;;;;;;4970692;28;20447;-93
2022/08/04 08:19:01;;;;;;;4.47;4.07;;;28.80;89.70;;;;;;4984714;28;20482;-94
2022/08/04 08:21:27;;;;;;;4.23;3.87;;;28.90;89.60;;;;;;4994859;28;20491;-94
2022/08/04 08:23:53;;;;;;;5.20;3.93;;;28.90;89.40;;;;;;4977717;28;20470;-96
2022/08/04 08:26:19;;;;;;;4.37;4.07;;;29.00;89.00;;;;;;4956368;28;20478;-93
2022/08/04 08:28:45;;;;;;;4.27;3.87;;;29.10;88.40;;;;;;4951392;28;20441;-91
2022/08/04 08:31:11;;;;;;;4.33;3.80;;;29.20;88.60;;;;;;4954011;28;20204;-90
2022/08/04 08:33:37;;;;;;;4.00;3.60;;;29.20;88.10;;;;;;4960787;28;20456;-91
2022/08/04 08:36:09;;;;;;;3.87;3.57;;;29.30;88.40;;;;;;4950115;28;20203;-92
2022/08/04 08:38:38;;;;;;;4.00;3.50;;;29.30;88.30;;;;;;4969536;28;20476;-91
2022/08/04 08:41:09;;;;;;;4.77;3.97;;;29.40;88.50;;;;;;4975893;28;20479;-92
2022/08/04 08:43:53;;;;;;;3.83;3.53;;;29.50;87.40;;;;;;4962644;28;21036;-91
2022/08/04 08:46:42;;;;;;;3.87;3.57;;;29.60;86.90;;;;;;4970925;28;20992;-90
2022/08/04 08:49:45;;;;;;;3.37;3.17;;;29.60;87.30;;;;;;4959865;28;20455;-94
2022/08/04 08:52:35;;;;;;;3.40;3.20;;;29.70;87.00;;;;;;4955339;28;20432;-91
2022/08/04 08:55:19;;;;;;;5.03;3.63;;;29.80;87.10;;;;;;4964765;28;20982;-95
2022/08/04 08:58:12;;;;;;;4.37;3.40;;;29.90;87.20;;;;;;4961018;28;20466;-92
2022/08/04 09:00:37;;;;;;;3.80;3.30;;;30.00;86.00;;;;;;4959414;28;20464;-92
2022/08/04 09:03:38;;;;;;;4.80;3.10;;;30.10;86.30;;;;;;4948103;28;20435;-91
2022/08/04 09:06:33;;;;;;;3.20;3.00;;;30.20;86.30;;;;;;4960520;28;20227;-91
2022/08/04 09:09:12;;;;;;;2.80;2.60;;;30.30;85.70;;;;;;4953534;28;20475;-95
2022/08/04 09:12:05;;;;;;;3.73;3.43;;;30.40;85.20;;;;;;4972093;28;20435;-91
2022/08/04 09:14:41;;;;;;;3.80;3.43;;;30.50;83.80;;;;;;4964524;28;20481;-94
2022/08/04 09:17:19;;;;;;;3.33;3.00;;;30.70;84.50;;;;;;4953372;28;20426;-94
2022/08/04 09:19:56;;;;;;;3.97;3.30;;;30.80;83.30;;;;;;4947878;29;20477;-94
2022/08/04 09:22:32;;;;;;;3.73;3.43;;;30.80;85.10;;;;;;4955048;28;20862;-91
2022/08/04 09:25:12;;;;;;;5.87;3.53;;;31.00;82.90;;;;;;4964566;28;20486;-95
2022/08/04 09:27:59;;;;;;;3.40;3.10;;;31.10;82.40;;;;;;4976107;28;20520;-95
2022/08/04 09:30:47;;;;;;;3.87;3.50;;;31.20;83.00;;;;;;4956638;28;20493;-91
2022/08/04 09:33:36;;;;;;;3.53;3.23;;;31.40;81.00;;;;;;4962723;28;20784;-91
2022/08/04 09:36:17;;;;;;;3.53;3.27;;;31.50;80.90;;;;;;4974261;28;20462;-94
2022/08/04 09:39:08;;;;;;;3.87;3.57;;;31.40;82.10;;;;;;4973403;28;20483;-95
2022/08/04 09:41:52;;;;;;;3.90;3.60;;;31.50;81.30;;;;;;4961520;28;20434;-91
2022/08/04 09:44:33;;;;;;;4.40;4.00;;;31.60;79.80;;;;;;4963585;28;20474;-94
2022/08/04 09:47:12;;;;;;;4.07;3.70;;;31.70;78.60;;;;;;4975511;28;20482;-95
2022/08/04 09:49:49;;;;;;;3.87;3.60;;;31.80;80.20;;;;;;4972055;28;20468;-95
2022/08/04 09:52:27;;;;;;;4.07;3.70;;;31.80;81.10;;;;;;4967524;28;20466;-95
2022/08/04 09:55:04;;;;;;;4.13;3.63;;;31.70;80.80;;;;;;4965326;28;20481;-95
2022/08/04 09:57:33;;;;;;;4.00;3.70;;;31.80;81.30;;;;;;4970235;28;20448;-91
2022/08/04 10:00:15;;;;;;;3.80;3.40;;;31.80;78.70;;;;;;4968744;28;20496;-95
2022/08/04 10:02:54;;;;;;;4.17;3.87;;;31.90;77.90;;;;;;4975628;28;20418;-90
2022/08/04 10:05:29;;;;;;;4.40;4.00;;;31.90;77.00;;;;;;4978103;28;20482;-95
2022/08/04 10:08:15;;;;;;;5.60;4.60;;;32.00;78.10;;;;;;4989424;28;20451;-94
2022/08/04 10:10:47;;;;;;;4.70;4.33;;;32.00;77.30;;;;;;4975595;28;20465;-91
2022/08/04 10:13:31;;;;;;;4.33;3.90;;;32.10;77.00;;;;;;4982659;28;20454;-95
2022/08/04 10:16:06;;;;;;;4.80;4.40;;;32.10;78.40;;;;;;4973556;28;20442;-91
2022/08/04 10:19:08;;;;;;;5.13;4.70;;;32.20;77.40;;;;;;4973220;28;20923;-91
2022/08/04 10:22:00;;;;;;;4.37;4.07;;;32.20;77.40;;;;;;4974167;28;20414;-91
2022/08/04 10:24:32;;;;;;;5.13;4.63;;;32.30;78.30;;;;;;4973183;28;20509;-95
2022/08/04 10:27:41;;;;;;;4.67;4.27;;;32.20;78.90;;;;;;4973148;28;20430;-94
2022/08/04 10:30:12;;;;;;;5.10;4.20;;;32.30;78.30;;;;;;4950395;28;20551;-92
2022/08/04 10:33:02;;;;;;;4.30;3.90;;;32.30;78.30;;;;;;4960269;28;20412;-91
2022/08/04 10:35:49;;;;;;;4.50;4.10;;;32.30;77.10;;;;;;4957839;28;20494;-95
2022/08/04 10:38:24;;;;;;;4.33;3.93;;;32.30;76.60;;;;;;4965839;28;20430;-94
2022/08/04 10:41:15;;;;;;;4.47;4.13;;;32.40;76.50;;;;;;4965444;28;20508;-96
2022/08/04 10:43:47;;;;;;;5.00;4.37;;;32.50;76.40;;;;;;4952184;28;20467;-95
2022/08/04 10:46:30;;;;;;;4.80;4.30;;;32.50;77.40;;;;;;4968771;28;20491;-93
2022/08/04 10:49:03;;;;;;;4.83;4.43;;;32.30;78.60;;;;;;4966496;28;20431;-94
2022/08/04 10:52:03;;;;;;;5.70;5.20;;;32.20;78.40;;;;;;4964159;28;20427;-93
2022/08/04 10:54:50;;;;;;;5.10;4.70;;;32.30;78.80;;;;;;4964364;28;20467;-92
2022/08/04 10:57:34;;;;;;;5.33;4.83;;;32.30;78.90;;;;;;4961431;28;20672;-95
2022/08/04 11:00:08;;;;;;;6.37;4.80;;;32.30;77.60;;;;;;4963800;28;20481;-92
2022/08/04 11:02:52;;;;;;;4.60;4.23;;;32.30;78.30;;;;;;4972101;28;20453;-91
2022/08/04 11:05:54;;;;;;;5.20;4.70;;;32.30;79.00;;;;;;4959648;28;20579;-92
2022/08/04 11:08:28;;;;;;;4.90;4.03;;;32.20;79.40;;;;;;4964210;28;20453;-94
2022/08/04 11:11:15;;;;;;;8.73;3.83;;;32.20;79.30;;;;;;4967598;28;20496;-93
2022/08/04 11:14:02;;;;;;;4.37;3.90;;;32.30;76.40;;;;;;4974523;28;20453;-91
2022/08/04 11:16:50;;;;;;;4.90;4.27;;;32.50;74.70;;;;;;4974134;28;20544;-92
2022/08/04 11:19:46;;;;;;;5.13;4.73;;;32.60;76.40;;;;;;4976497;28;20800;-95
2022/08/04 11:22:21;;;;;;;5.73;5.10;;;32.50;76.50;;;;;;4978400;28;20450;-94
2022/08/04 11:25:04;;;;;;;4.80;4.40;;;32.60;74.20;;;;;;4966877;28;20469;-93
2022/08/04 11:27:43;;;;;;;4.37;4.07;;;32.70;74.10;;;;;;4974545;28;20454;-95
2022/08/04 11:30:12;;;;;;;4.33;3.93;;;32.60;76.70;;;;;;4959774;28;20481;-94
2022/08/04 11:33:05;;;;;;;4.83;4.43;;;32.60;74.00;;;;;;4976321;28;20504;-95
2022/08/04 11:35:41;;;;;;;4.17;3.87;;;32.80;74.80;;;;;;4968260;28;20545;-93
2022/08/04 11:38:28;;;;;;;4.80;4.40;;;32.60;77.10;;;;;;4958536;28;20449;-96
2022/08/04 11:41:04;;;;;;;5.10;4.70;;;32.70;75.00;;;;;;4976421;28;20994;-96
2022/08/04 11:43:50;;;;;;;4.73;4.43;;;32.70;72.80;;;;;;5008219;28;20451;-95
2022/08/04 11:46:23;;;;;;;4.00;3.60;;;32.80;74.60;;;;;;4981874;28;20497;-90
2022/08/04 11:49:22;;;;;;;4.97;4.57;;;32.80;74.80;;;;;;4965515;28;20582;-96
2022/08/04 11:51:50;;;;;;;4.77;4.37;;;32.90;74.50;;;;;;4936583;28;20426;-92
2022/08/04 11:54:17;;;;;;;3.77;3.47;;;32.90;75.70;;;;;;4979966;28;20513;-91
2022/08/04 11:56:43;;;;;;;4.50;4.07;;;32.90;72.50;;;;;;4974567;28;20422;-93
2022/08/04 11:59:09;;;;;;;5.20;4.70;;;32.90;71.90;;;;;;4973889;28;20490;-93
2022/08/04 12:02:10;;;;;;;4.83;4.43;;;32.90;74.50;;;;;;4970038;28;20435;-91
2022/08/04 12:04:57;;;;;;;4.23;3.80;;;32.70;76.90;;;;;;4943423;28;20589;-96
2022/08/04 12:07:31;;;;;;;4.30;3.90;;;32.80;74.30;;;;;;4976820;28;20438;-91
2022/08/04 12:09:59;;;;;;;4.90;4.50;;;32.90;74.60;;;;;;4982121;28;20535;-94
2022/08/04 12:12:42;;;;;;;4.43;4.00;;;32.70;77.00;;;;;;4976815;28;20477;-91
2022/08/04 12:15:26;;;;;;;4.90;4.50;;;32.50;78.20;;;;;;4972921;28;20533;-93
2022/08/04 12:18:27;;;;;;;4.13;3.83;;;32.50;79.40;;;;;;4974585;28;20434;-95
2022/08/04 12:21:08;;;;;;;4.50;4.10;;;32.40;77.80;;;;;;4964757;28;20447;-93
2022/08/04 12:23:46;;;;;;;5.50;4.33;;;32.60;75.50;;;;;;4969507;28;20432;-93
2022/08/04 12:26:58;;;;;;;4.50;4.10;;;32.60;77.30;;;;;;4977120;28;20495;-95
2022/08/04 12:29:26;;;;;;;5.33;4.83;;;32.60;77.60;;;;;;4983021;28;20473;-94
2022/08/04 12:32:18;;;;;;;5.53;5.03;;;32.60;72.40;;;;;;4973652;28;20418;-91
2022/08/04 12:35:18;;;;;;;4.77;4.30;;;32.60;77.20;;;;;;4933694;28;20573;-90
2022/08/04 12:38:03;;;;;;;4.70;4.40;;;32.60;73.20;;;;;;4971314;28;20440;-93
2022/08/04 12:40:49;;;;;;;5.00;4.60;;;32.60;77.00;;;;;;4975606;28;20462;-94
2022/08/04 12:43:35;;;;;;;6.50;4.10;;;32.70;75.20;;;;;;4980526;28;20485;-92
2022/08/04 12:46:08;;;;;;;4.80;4.40;;;32.70;76.70;;;;;;4986606;28;20858;-93
2022/08/04 12:48:36;;;;;;;5.87;4.37;;;32.70;77.10;;;;;;4956777;28;20469;-95
2022/08/04 12:51:02;;;;;;;4.67;3.90;;;32.60;78.20;;;;;;4984545;28;20438;-94
2022/08/04 12:53:40;;;;;;;4.97;4.57;;;32.40;78.80;;;;;;4972293;28;20440;-94
2022/08/04 12:56:08;;;;;;;4.50;4.20;;;32.30;79.50;;;;;;4960765;28;20993;-92
2022/08/04 12:58:48;;;;;;;5.40;4.60;;;32.30;79.50;;;;;;4979597;28;20436;-93
2022/08/04 13:01:18;;;;;;;4.83;3.80;;;32.30;79.60;;;;;;4963969;28;20481;-95
2022/08/04 13:03:54;;;;;;;4.67;4.27;;;32.30;79.40;;;;;;4971650;28;20949;-92
2022/08/04 13:06:25;;;;;;;4.50;4.10;;;32.30;79.30;;;;;;4983531;28;20520;-91
2022/08/04 13:08:53;;;;;;;4.40;4.00;;;32.40;78.50;;;;;;4968128;28;20473;-92
2022/08/04 13:11:21;;;;;;;4.70;4.30;;;32.30;78.90;;;;;;4969670;28;20434;-93
2022/08/04 13:13:53;;;;;;;5.10;4.70;;;32.40;74.40;;;;;;4977082;28;20441;-93
2022/08/04 13:16:31;;;;;;;5.03;4.53;;;32.50;76.10;;;;;;4962818;28;20447;-94
2022/08/04 13:18:58;;;;;;;4.90;4.50;;;32.60;76.70;;;;;;4987983;28;20654;-94
2022/08/04 13:21:28;;;;;;;4.33;4.00;;;32.60;76.80;;;;;;4969011;28;21014;-91
2022/08/04 13:24:12;;;;;;;5.40;4.90;;;32.70;75.80;;;;;;4961573;28;20439;-93
2022/08/04 13:26:52;;;;;;;4.50;4.20;;;32.80;76.10;;;;;;4962915;28;20489;-93
2022/08/04 13:29:19;;;;;;;4.40;4.00;;;32.90;74.30;;;;;;4951793;29;20447;-94
2022/08/04 13:31:45;;;;;;;4.47;4.17;;;32.90;75.80;;;;;;4964947;28;20824;-90
2022/08/04 13:34:14;;;;;;;4.57;4.17;;;33.00;71.80;;;;;;4986506;28;20434;-94
2022/08/04 13:36:42;;;;;;;5.73;4.80;;;33.10;71.60;;;;;;4964175;28;20942;-91
2022/08/04 13:39:17;;;;;;;6.70;4.40;;;33.10;69.90;;;;;;4983707;28;20525;-92
2022/08/04 13:41:49;;;;;;;4.63;4.33;;;33.20;69.40;;;;;;4963373;28;20952;-92